createdAt,value
2022-09-20T00:00:57.782Z,5.9
2022-09-20T00:01:57.722Z,10
2022-09-20T00:02:57.713Z,11.700000000000001
2022-09-20T00:03:57.717Z,13.8
2022-09-20T00:04:57.807Z,14
2022-09-20T00:05:57.746Z,8.8
2022-09-20T00:06:57.731Z,2.7
2022-09-20T00:07:57.722Z,2.4000000000000004
2022-09-20T00:08:57.727Z,9.8
2022-09-20T00:09:57.718Z,7.1000000000000005
2022-09-20T00:10:57.724Z,2.9000000000000004
2022-09-20T00:11:57.731Z,11.200000000000001
2022-09-20T00:12:57.730Z,9.3
2022-09-20T00:13:57.738Z,8.9
2022-09-20T00:14:57.736Z,18
2022-09-20T00:15:57.731Z,13.8
2022-09-20T00:16:57.756Z,9.3
2022-09-20T00:17:57.741Z,8.3
2022-09-20T00:18:57.739Z,10
2022-09-20T00:19:57.735Z,9
2022-09-20T00:20:57.743Z,13.3
2022-09-20T00:21:57.768Z,8
2022-09-20T00:22:57.744Z,14.700000000000001
2022-09-20T00:23:57.799Z,13
2022-09-20T00:24:57.750Z,17.1
2022-09-20T00:25:57.750Z,13.5
2022-09-20T00:26:57.743Z,15.700000000000001
2022-09-20T00:27:57.748Z,13.3
2022-09-20T00:28:57.767Z,7.4
2022-09-20T00:29:57.754Z,10.200000000000001
2022-09-20T00:30:57.760Z,13.200000000000001
2022-09-20T00:31:57.812Z,10.5
2022-09-20T00:32:57.755Z,7.800000000000001
2022-09-20T00:33:57.755Z,6.2
2022-09-20T00:34:57.755Z,8.8
2022-09-20T00:35:57.762Z,8.6
2022-09-20T00:36:57.763Z,8.200000000000001
2022-09-20T00:37:57.784Z,2.8000000000000003
2022-09-20T00:38:57.763Z,4.7
2022-09-20T00:39:57.813Z,5
2022-09-20T00:40:57.760Z,6.300000000000001
2022-09-20T00:41:57.766Z,5.1000000000000005
2022-09-20T00:42:57.769Z,6
2022-09-20T00:43:57.771Z,3
2022-09-20T00:44:57.777Z,5.5
2022-09-20T00:45:57.867Z,4.6000000000000005
2022-09-20T00:46:57.780Z,7.6000000000000005
2022-09-20T00:47:57.778Z,2.5
2022-09-20T00:48:57.778Z,8.9
2022-09-20T00:49:57.771Z,4.6000000000000005
2022-09-20T00:50:57.774Z,2.4000000000000004
2022-09-20T00:51:57.779Z,2.1
2022-09-20T00:52:57.770Z,4.5
2022-09-20T00:53:57.803Z,5.800000000000001
2022-09-20T00:54:57.781Z,3.6
2022-09-20T00:55:57.778Z,9.600000000000001
2022-09-20T00:56:57.785Z,6.2
2022-09-20T00:57:57.790Z,2.9000000000000004
2022-09-20T00:58:57.786Z,7.7
2022-09-20T00:59:57.797Z,7.300000000000001
2022-09-20T01:00:57.879Z,0.8
2022-09-20T01:01:57.837Z,4.7
2022-09-20T01:02:57.797Z,0
2022-09-20T01:03:57.796Z,6.2
2022-09-20T01:04:57.810Z,3.4000000000000004
2022-09-20T01:05:57.802Z,4.800000000000001
2022-09-20T01:06:57.817Z,3.8000000000000003
2022-09-20T01:07:57.807Z,4.4
2022-09-20T01:08:57.803Z,1.9000000000000001
2022-09-20T01:09:57.823Z,4.5
2022-09-20T01:10:57.811Z,0
2022-09-20T01:11:57.813Z,0
2022-09-20T01:12:57.812Z,0
2022-09-20T01:13:57.801Z,0
2022-09-20T01:14:57.811Z,0
2022-09-20T01:15:57.819Z,0
2022-09-20T01:16:57.920Z,4.800000000000001
2022-09-20T01:17:57.809Z,4.4
2022-09-20T01:18:57.813Z,4.5
2022-09-20T01:19:57.828Z,0
2022-09-20T01:20:57.825Z,0
2022-09-20T01:21:57.824Z,3.9000000000000004
2022-09-20T01:22:57.825Z,3
2022-09-20T01:23:57.828Z,4.4
2022-09-20T01:24:57.830Z,5.4
2022-09-20T01:25:57.862Z,3.3000000000000003
2022-09-20T01:26:57.839Z,3.9000000000000004
2022-09-20T01:27:57.831Z,3
2022-09-20T01:28:57.834Z,3
2022-09-20T01:29:57.834Z,3.2
2022-09-20T01:30:57.842Z,5.5
2022-09-20T01:31:57.951Z,3.2
2022-09-20T01:32:57.841Z,4.9
2022-09-20T01:33:57.833Z,3.2
2022-09-20T01:34:57.844Z,0.8
2022-09-20T01:35:57.854Z,0
2022-09-20T01:36:57.845Z,0
2022-09-20T01:37:57.837Z,3.6
2022-09-20T01:38:57.844Z,0
2022-09-20T01:39:57.850Z,0
2022-09-20T01:40:57.848Z,0
2022-09-20T01:41:57.876Z,0
2022-09-20T01:42:57.848Z,0
2022-09-20T01:43:57.851Z,0
2022-09-20T01:44:57.855Z,0
2022-09-20T01:45:57.903Z,0
2022-09-20T01:46:57.850Z,0
2022-09-20T01:47:57.854Z,0
2022-09-20T01:48:57.867Z,0
2022-09-20T01:49:57.845Z,0
2022-09-20T01:50:57.856Z,0
2022-09-20T01:51:57.870Z,0
2022-09-20T01:52:57.861Z,0
2022-09-20T01:53:57.873Z,0
2022-09-20T01:54:57.878Z,0
2022-09-20T01:55:57.867Z,0
2022-09-20T01:56:57.867Z,0
2022-09-20T01:57:57.894Z,0
2022-09-20T01:59:19.643Z,0
2022-09-20T01:59:57.866Z,0
2022-09-20T02:00:57.930Z,0
2022-09-20T02:01:57.915Z,0
2022-09-20T02:02:57.872Z,0
2022-09-20T02:03:57.881Z,0
2022-09-20T02:04:57.876Z,0
2022-09-20T02:05:57.873Z,0
2022-09-20T02:06:57.890Z,0
2022-09-20T02:07:57.885Z,0
2022-09-20T02:08:57.890Z,0
2022-09-20T02:09:57.888Z,0
2022-09-20T02:10:57.891Z,0
2022-09-20T02:11:57.890Z,0
2022-09-20T02:12:57.893Z,0
2022-09-20T02:13:57.909Z,0
2022-09-20T02:14:57.897Z,0
2022-09-20T02:15:57.888Z,0
2022-09-20T02:16:57.949Z,0
2022-09-20T02:17:57.889Z,0
2022-09-20T02:18:57.889Z,0
2022-09-20T02:19:57.889Z,0
2022-09-20T02:20:57.897Z,0
2022-09-20T02:21:57.896Z,0
2022-09-20T02:22:57.920Z,0
2022-09-20T02:23:57.891Z,0
2022-09-20T02:24:57.897Z,0
2022-09-20T02:25:57.896Z,0
2022-09-20T02:26:57.896Z,0
2022-09-20T02:27:57.902Z,0
2022-09-20T02:28:57.904Z,0
2022-09-20T02:29:57.921Z,0
2022-09-20T02:30:57.912Z,0
2022-09-20T02:31:57.963Z,0
2022-09-20T02:32:57.904Z,0
2022-09-20T02:33:57.904Z,0
2022-09-20T02:34:57.906Z,0
2022-09-20T02:35:57.906Z,0
2022-09-20T02:36:57.914Z,0
2022-09-20T02:37:57.912Z,0
2022-09-20T02:38:57.911Z,0
2022-09-20T02:39:57.930Z,0
2022-09-20T02:40:57.909Z,0
2022-09-20T02:41:57.901Z,0
2022-09-20T02:42:57.912Z,0
2022-09-20T02:43:57.913Z,0
2022-09-20T02:44:57.924Z,0
2022-09-20T02:45:58.022Z,0
2022-09-20T02:46:57.914Z,0
2022-09-20T02:47:57.909Z,0
2022-09-20T02:48:57.919Z,0
2022-09-20T02:49:57.919Z,0
2022-09-20T02:50:57.933Z,0
2022-09-20T02:51:57.914Z,0
2022-09-20T02:52:57.921Z,0
2022-09-20T02:53:57.928Z,0
2022-09-20T02:54:57.928Z,0
2022-09-20T02:55:57.925Z,0
2022-09-20T02:56:57.928Z,0
2022-09-20T02:57:57.944Z,0
2022-09-20T02:58:57.929Z,0
2022-09-20T02:59:57.931Z,0
2022-09-20T03:00:58.021Z,0
2022-09-20T03:01:58.003Z,0
2022-09-20T03:02:57.936Z,0
2022-09-20T03:03:57.929Z,0
2022-09-20T03:04:57.937Z,0
2022-09-20T03:05:57.938Z,0
2022-09-20T03:06:57.943Z,1.9000000000000001
2022-09-20T03:07:57.939Z,0
2022-09-20T03:08:57.937Z,2.3000000000000003
2022-09-20T03:09:57.941Z,2.8000000000000003
2022-09-20T03:10:57.938Z,0.5
2022-09-20T03:11:57.936Z,1.4000000000000001
2022-09-20T03:12:57.941Z,0
2022-09-20T03:13:57.939Z,0
2022-09-20T03:14:57.942Z,0
2022-09-20T03:15:57.942Z,0
2022-09-20T03:16:58.016Z,0
2022-09-20T03:17:57.963Z,0
2022-09-20T03:18:57.945Z,0
2022-09-20T03:19:57.943Z,0
2022-09-20T03:20:57.950Z,0
2022-09-20T03:21:57.939Z,0
2022-09-20T03:22:57.952Z,0
2022-09-20T03:23:57.946Z,0
2022-09-20T03:24:57.940Z,0
2022-09-20T03:25:57.949Z,0
2022-09-20T03:26:57.949Z,0
2022-09-20T03:27:57.939Z,0
2022-09-20T03:28:57.941Z,0
2022-09-20T03:29:57.952Z,0
2022-09-20T03:30:57.949Z,0
2022-09-20T03:31:57.998Z,0
2022-09-20T03:32:57.952Z,0
2022-09-20T03:33:57.985Z,0
2022-09-20T03:34:57.950Z,4
2022-09-20T03:35:57.953Z,2.3000000000000003
2022-09-20T03:36:57.951Z,0.8
2022-09-20T03:37:57.955Z,0
2022-09-20T03:38:57.961Z,0
2022-09-20T03:39:57.971Z,0
2022-09-20T03:40:57.973Z,0
2022-09-20T03:41:57.956Z,0
2022-09-20T03:42:57.953Z,0
2022-09-20T03:43:57.955Z,0
2022-09-20T03:44:57.979Z,0
2022-09-20T03:45:58.013Z,0
2022-09-20T03:46:57.946Z,0
2022-09-20T03:47:57.952Z,0
2022-09-20T03:48:57.955Z,0
2022-09-20T03:49:57.991Z,0
2022-09-20T03:50:57.967Z,0
2022-09-20T03:51:57.955Z,0
2022-09-20T03:52:57.960Z,0
2022-09-20T03:53:57.959Z,0
2022-09-20T03:54:57.960Z,0
2022-09-20T03:55:57.961Z,0
2022-09-20T03:56:57.959Z,0
2022-09-20T03:57:57.956Z,0
2022-09-20T03:58:57.972Z,0
2022-09-20T03:59:57.962Z,0
2022-09-20T04:00:58.020Z,0
2022-09-20T04:01:57.995Z,0
2022-09-20T04:02:57.981Z,0
2022-09-20T04:03:57.972Z,0
2022-09-20T04:04:57.969Z,0
2022-09-20T04:05:57.996Z,0
2022-09-20T04:06:57.977Z,0
2022-09-20T04:07:57.988Z,0
2022-09-20T04:08:57.975Z,0
2022-09-20T04:09:57.986Z,0
2022-09-20T04:10:57.982Z,0
2022-09-20T04:11:57.983Z,0
2022-09-20T04:12:57.982Z,0
2022-09-20T04:13:57.977Z,0
2022-09-20T04:14:57.997Z,0
2022-09-20T04:15:57.984Z,0
2022-09-20T04:16:58.038Z,0
2022-09-20T04:17:57.987Z,0
2022-09-20T04:18:57.991Z,0
2022-09-20T04:19:57.994Z,0
2022-09-20T04:20:57.986Z,0
2022-09-20T04:21:58.030Z,0
2022-09-20T04:22:57.990Z,0
2022-09-20T04:23:57.991Z,0
2022-09-20T04:24:57.993Z,0
2022-09-20T04:25:57.991Z,0
2022-09-20T04:26:58.001Z,0
2022-09-20T04:27:58.001Z,0
2022-09-20T04:28:57.993Z,0
2022-09-20T04:29:58.003Z,0
2022-09-20T04:30:58.002Z,0
2022-09-20T04:31:58.085Z,0
2022-09-20T04:32:58.002Z,0
2022-09-20T04:33:58.015Z,0
2022-09-20T04:34:58.007Z,0
2022-09-20T04:35:58.009Z,0
2022-09-20T04:36:58.020Z,0
2022-09-20T04:37:58.051Z,0
2022-09-20T04:38:58.018Z,0
2022-09-20T04:39:58.093Z,0
2022-09-20T04:40:58.023Z,0
2022-09-20T04:41:58.028Z,0
2022-09-20T04:42:58.020Z,5.2
2022-09-20T04:43:58.029Z,5.800000000000001
2022-09-20T04:44:58.021Z,2.7
2022-09-20T04:45:58.142Z,4.5
2022-09-20T04:46:58.023Z,5.5
2022-09-20T04:47:58.030Z,3.4000000000000004
2022-09-20T04:48:58.027Z,4
2022-09-20T04:49:58.035Z,5.9
2022-09-20T04:50:58.036Z,6.6000000000000005
2022-09-20T04:51:58.035Z,7.4
2022-09-20T04:52:58.042Z,5.9
2022-09-20T04:53:58.067Z,1.8
2022-09-20T04:54:58.035Z,2.6
2022-09-20T04:55:58.044Z,3.2
2022-09-20T04:56:58.041Z,4.2
2022-09-20T04:57:58.049Z,5.5
2022-09-20T04:58:58.043Z,4.5
2022-09-20T04:59:58.048Z,4
2022-09-20T05:00:58.092Z,3.5
2022-09-20T05:01:58.073Z,3.2
2022-09-20T05:02:58.065Z,5.4
2022-09-20T05:03:58.057Z,4.7
2022-09-20T05:04:58.059Z,4.1000000000000005
2022-09-20T05:05:58.052Z,3.3000000000000003
2022-09-20T05:06:58.061Z,5.6000000000000005
2022-09-20T05:07:58.063Z,5.800000000000001
2022-09-20T05:08:59.140Z,6.2
2022-09-20T05:09:58.100Z,7.1000000000000005
2022-09-20T05:10:58.078Z,11.200000000000001
2022-09-20T05:11:58.074Z,3.7
2022-09-20T05:12:58.071Z,2.5
2022-09-20T05:13:58.062Z,4.800000000000001
2022-09-20T05:14:58.071Z,2.7
2022-09-20T05:15:58.077Z,0
2022-09-20T05:16:58.159Z,0
2022-09-20T05:17:58.073Z,0
2022-09-20T05:18:58.083Z,0
2022-09-20T05:19:58.083Z,0
2022-09-20T05:20:58.085Z,0
2022-09-20T05:21:58.085Z,0
2022-09-20T05:22:58.088Z,0
2022-09-20T05:23:58.079Z,0
2022-09-20T05:24:58.083Z,0
2022-09-20T05:25:58.108Z,0
2022-09-20T05:26:58.091Z,0
2022-09-20T05:27:58.093Z,0
2022-09-20T05:28:58.092Z,0
2022-09-20T05:29:58.955Z,3.3000000000000003
2022-09-20T05:30:58.087Z,2.3000000000000003
2022-09-20T05:31:58.172Z,7.5
2022-09-20T05:32:58.084Z,7.5
2022-09-20T05:33:58.091Z,7.2
2022-09-20T05:34:58.095Z,6.800000000000001
2022-09-20T05:35:58.098Z,7.9
2022-09-20T05:36:58.110Z,7.6000000000000005
2022-09-20T05:37:58.105Z,0
2022-09-20T05:39:00.171Z,0
2022-09-20T05:39:58.188Z,0
2022-09-20T05:40:58.107Z,0
2022-09-20T05:41:58.134Z,0
2022-09-20T05:42:58.112Z,0
2022-09-20T05:43:58.125Z,0
2022-09-20T05:44:58.106Z,0
2022-09-20T05:45:58.165Z,0
2022-09-20T05:46:58.112Z,0
2022-09-20T05:47:58.174Z,0
2022-09-20T05:48:58.107Z,0
2022-09-20T05:49:58.113Z,0
2022-09-20T05:51:00.653Z,0
2022-09-20T05:51:58.107Z,0
2022-09-20T05:52:58.111Z,0
2022-09-20T05:53:58.117Z,0
2022-09-20T05:54:58.118Z,0
2022-09-20T05:55:58.128Z,0
2022-09-20T05:56:58.125Z,0
2022-09-20T05:57:58.143Z,0
2022-09-20T05:58:58.125Z,0
2022-09-20T05:59:58.125Z,0
2022-09-20T06:00:58.186Z,0
2022-09-20T06:01:58.180Z,0
2022-09-20T06:02:58.140Z,0
2022-09-20T06:03:58.124Z,0
2022-09-20T06:04:58.145Z,0
2022-09-20T06:05:58.135Z,0
2022-09-20T06:06:58.133Z,0
2022-09-20T06:07:58.124Z,0
2022-09-20T06:08:58.139Z,0
2022-09-20T06:09:58.142Z,0
2022-09-20T06:10:58.141Z,0
2022-09-20T06:11:58.137Z,0
2022-09-20T06:12:58.138Z,0
2022-09-20T06:13:58.172Z,0
2022-09-20T06:14:58.150Z,0
2022-09-20T06:15:58.150Z,0
2022-09-20T06:16:58.150Z,0
2022-09-20T06:17:58.151Z,0
2022-09-20T06:18:58.147Z,0
2022-09-20T06:19:58.151Z,0
2022-09-20T06:20:58.152Z,0
2022-09-20T06:22:00.941Z,0
2022-09-20T06:22:58.151Z,0
2022-09-20T06:23:58.155Z,0
2022-09-20T06:24:58.153Z,0
2022-09-20T06:25:58.155Z,0
2022-09-20T06:26:58.159Z,0
2022-09-20T06:27:58.152Z,0
2022-09-20T06:28:58.573Z,0
2022-09-20T06:29:58.185Z,0
2022-09-20T06:30:58.198Z,0
2022-09-20T06:31:58.153Z,0
2022-09-20T06:32:58.164Z,0
2022-09-20T06:33:58.155Z,0
2022-09-20T06:34:58.195Z,0
2022-09-20T06:35:59.132Z,0
2022-09-20T06:36:58.165Z,0
2022-09-20T06:37:58.170Z,0
2022-09-20T06:38:58.167Z,0
2022-09-20T06:39:58.187Z,0
2022-09-20T06:40:58.158Z,0
2022-09-20T06:41:58.160Z,0
2022-09-20T06:42:58.173Z,0
2022-09-20T06:43:58.178Z,0
2022-09-20T06:44:58.171Z,0
2022-09-20T06:45:58.259Z,0
2022-09-20T06:46:58.171Z,0
2022-09-20T06:47:58.181Z,0
2022-09-20T06:48:58.177Z,0
2022-09-20T06:49:58.172Z,0
2022-09-20T06:50:58.173Z,0
2022-09-20T06:51:58.170Z,0
2022-09-20T06:52:58.180Z,0
2022-09-20T06:53:58.184Z,0
2022-09-20T06:54:58.170Z,0
2022-09-20T06:55:58.185Z,0
2022-09-20T06:56:58.187Z,0
2022-09-20T06:57:58.178Z,0
2022-09-20T06:58:58.184Z,0
2022-09-20T06:59:58.188Z,0
2022-09-20T07:00:58.206Z,0
2022-09-20T07:01:58.246Z,0
2022-09-20T07:02:58.184Z,0
2022-09-20T07:03:58.191Z,0
2022-09-20T07:04:58.192Z,0
2022-09-20T07:05:58.187Z,0
2022-09-20T07:06:58.187Z,0
2022-09-20T07:07:58.188Z,0
2022-09-20T07:08:58.198Z,0
2022-09-20T07:09:58.197Z,0
2022-09-20T07:10:58.194Z,0
2022-09-20T07:11:58.200Z,0
2022-09-20T07:12:58.195Z,0
2022-09-20T07:13:58.233Z,0
2022-09-20T07:14:58.203Z,0
2022-09-20T07:15:58.193Z,0
2022-09-20T07:16:58.208Z,0
2022-09-20T07:17:58.224Z,0
2022-09-20T07:18:58.207Z,0
2022-09-20T07:19:58.204Z,0
2022-09-20T07:20:58.205Z,0
2022-09-20T07:21:58.207Z,0
2022-09-20T07:22:58.202Z,0
2022-09-20T07:23:58.208Z,0
2022-09-20T07:24:58.196Z,0
2022-09-20T07:25:58.221Z,0
2022-09-20T07:26:58.209Z,0
2022-09-20T07:27:58.204Z,0
2022-09-20T07:28:58.204Z,0
2022-09-20T07:29:58.211Z,0
2022-09-20T07:30:58.207Z,0
2022-09-20T07:31:58.246Z,0
2022-09-20T07:32:58.207Z,0
2022-09-20T07:33:58.239Z,0
2022-09-20T07:34:58.217Z,0
2022-09-20T07:35:58.210Z,0
2022-09-20T07:36:58.213Z,0
2022-09-20T07:37:58.222Z,0
2022-09-20T07:38:58.212Z,0
2022-09-20T07:39:58.263Z,4.5
2022-09-20T07:40:58.214Z,3.8000000000000003
2022-09-20T07:41:58.211Z,5.300000000000001
2022-09-20T07:42:58.219Z,5.1000000000000005
2022-09-20T07:43:58.212Z,5.9
2022-09-20T07:44:58.216Z,0
2022-09-20T07:45:58.281Z,2.6
2022-09-20T07:46:58.212Z,1.6
2022-09-20T07:47:58.217Z,1.5
2022-09-20T07:48:58.219Z,3.5
2022-09-20T07:49:58.240Z,8.200000000000001
2022-09-20T07:50:58.215Z,6.1000000000000005
2022-09-20T07:51:58.217Z,5.6000000000000005
2022-09-20T07:52:58.223Z,1.3
2022-09-20T07:53:58.220Z,0
2022-09-20T07:54:58.216Z,4.5
2022-09-20T07:55:58.219Z,3.3000000000000003
2022-09-20T07:56:58.225Z,0
2022-09-20T07:57:58.223Z,1.8
2022-09-20T07:58:58.227Z,0
2022-09-20T07:59:58.225Z,0
2022-09-20T08:00:58.266Z,0
2022-09-20T08:01:58.255Z,0
2022-09-20T08:02:58.213Z,0
2022-09-20T08:03:58.232Z,0
2022-09-20T08:04:58.216Z,3.3000000000000003
2022-09-20T08:05:58.253Z,3.7
2022-09-20T08:06:58.214Z,4.9
2022-09-20T08:07:58.224Z,2
2022-09-20T08:08:58.223Z,3.3000000000000003
2022-09-20T08:09:58.230Z,4.5
2022-09-20T08:10:58.225Z,5.2
2022-09-20T08:11:58.422Z,2.1
2022-09-20T08:14:06.810Z,4.1000000000000005
2022-09-20T08:14:58.219Z,0
2022-09-20T08:15:58.227Z,4.1000000000000005
2022-09-20T08:16:58.252Z,4.6000000000000005
2022-09-20T08:17:58.226Z,1.3
2022-09-20T08:18:58.222Z,2.5
2022-09-20T08:19:58.238Z,2.8000000000000003
2022-09-20T08:20:58.250Z,7.1000000000000005
2022-09-20T08:21:58.263Z,3.3000000000000003
2022-09-20T08:23:19.712Z,7.4
2022-09-20T08:23:58.242Z,6.300000000000001
2022-09-20T08:24:58.247Z,9.8
2022-09-20T08:25:58.243Z,8.9
2022-09-20T08:26:58.243Z,5.2
2022-09-20T08:27:58.246Z,2.2
2022-09-20T08:28:58.250Z,1.1
2022-09-20T08:29:58.241Z,4.9
2022-09-20T08:30:58.236Z,7.5
2022-09-20T08:31:58.299Z,7.6000000000000005
2022-09-20T08:32:58.244Z,5.7
2022-09-20T08:33:58.243Z,5.4
2022-09-20T08:34:58.249Z,4.9
2022-09-20T08:35:58.243Z,7.800000000000001
2022-09-20T08:36:58.253Z,10
2022-09-20T08:39:57.039Z,5.4
2022-09-20T08:39:58.933Z,2.3000000000000003
2022-09-20T08:40:58.278Z,0
2022-09-20T08:41:58.252Z,7.6000000000000005
2022-09-20T08:42:58.282Z,3.8000000000000003
2022-09-20T08:43:58.262Z,2
2022-09-20T08:44:58.840Z,4.800000000000001
2022-09-20T08:45:58.273Z,5.6000000000000005
2022-09-20T08:46:58.260Z,4.2
2022-09-20T08:47:58.949Z,1.8
2022-09-20T08:48:58.263Z,2
2022-09-20T08:49:58.268Z,0.9
2022-09-20T08:50:58.273Z,6.800000000000001
2022-09-20T08:51:58.275Z,5.300000000000001
2022-09-20T08:53:00.691Z,3.4000000000000004
2022-09-20T08:53:58.338Z,2.4000000000000004
2022-09-20T08:54:58.278Z,2.1
2022-09-20T08:55:58.281Z,5.4
2022-09-20T08:56:58.288Z,2.9000000000000004
2022-09-20T08:57:58.284Z,0
2022-09-20T08:58:58.283Z,0
2022-09-20T08:59:58.293Z,0
2022-09-20T09:00:58.320Z,0
2022-09-20T09:01:58.324Z,5.2
2022-09-20T09:02:58.298Z,6
2022-09-20T09:03:58.296Z,6.2
2022-09-20T09:04:58.303Z,3.5
2022-09-20T09:05:58.293Z,7.5
2022-09-20T09:06:58.304Z,4.7
2022-09-20T09:07:58.295Z,8.1
2022-09-20T09:08:58.289Z,8
2022-09-20T09:09:58.330Z,5.7
2022-09-20T09:10:58.299Z,10.3
2022-09-20T09:11:58.297Z,6.4
2022-09-20T09:12:58.309Z,12.8
2022-09-20T09:13:58.316Z,10.100000000000001
2022-09-20T09:14:58.316Z,11.700000000000001
2022-09-20T09:15:58.322Z,4.7
2022-09-20T09:16:58.389Z,7.6000000000000005
2022-09-20T09:17:58.315Z,4.9
2022-09-20T09:18:58.312Z,6.4
2022-09-20T09:19:58.318Z,11
2022-09-20T09:20:58.316Z,6.4
2022-09-20T09:21:58.316Z,4.5
2022-09-20T09:22:58.313Z,9
2022-09-20T09:23:58.316Z,4.800000000000001
2022-09-20T09:24:58.320Z,7.300000000000001
2022-09-20T09:25:58.348Z,7
2022-09-20T09:26:58.322Z,5.300000000000001
2022-09-20T09:27:58.328Z,5.6000000000000005
2022-09-20T09:28:58.325Z,6.5
2022-09-20T09:29:58.335Z,9.4
2022-09-20T09:30:58.331Z,4
2022-09-20T09:31:58.428Z,5.1000000000000005
2022-09-20T09:32:58.337Z,6.300000000000001
2022-09-20T09:33:58.337Z,4.7
2022-09-20T09:34:58.335Z,5.800000000000001
2022-09-20T09:35:58.328Z,3.7
2022-09-20T09:36:58.338Z,2.7
2022-09-20T09:37:58.345Z,7.6000000000000005
2022-09-20T09:38:58.351Z,10
2022-09-20T09:39:58.424Z,5.2
2022-09-20T09:40:58.345Z,6.800000000000001
2022-09-20T09:41:58.369Z,7.9
2022-09-20T09:42:58.354Z,5.6000000000000005
2022-09-20T09:43:58.360Z,2.9000000000000004
2022-09-20T09:44:58.361Z,0
2022-09-20T09:45:58.447Z,0
2022-09-20T09:46:58.347Z,3.1
2022-09-20T09:47:58.357Z,6.300000000000001
2022-09-20T09:48:58.355Z,3.3000000000000003
2022-09-20T09:50:00.988Z,5.5
2022-09-20T09:50:58.354Z,5.5
2022-09-20T09:51:58.356Z,5.9
2022-09-20T09:52:58.363Z,6
2022-09-20T09:53:58.359Z,3.6
2022-09-20T09:55:00.262Z,4.800000000000001
2022-09-20T09:55:58.362Z,14.700000000000001
2022-09-20T09:56:58.363Z,9.700000000000001
2022-09-20T09:57:58.392Z,6.4
2022-09-20T09:58:58.370Z,8
2022-09-20T09:59:58.442Z,5.9
2022-09-20T10:00:58.390Z,12.600000000000001
2022-09-20T10:01:58.391Z,14.8
2022-09-20T10:02:58.372Z,12.100000000000001
2022-09-20T10:03:58.375Z,11.200000000000001
2022-09-20T10:04:58.374Z,10.3
2022-09-20T10:05:58.377Z,15.700000000000001
2022-09-20T10:06:58.378Z,8.700000000000001
2022-09-20T10:07:58.384Z,2.5
2022-09-20T10:08:58.377Z,9.1
2022-09-20T10:09:58.379Z,9.1
2022-09-20T10:10:58.383Z,15.600000000000001
2022-09-20T10:11:58.388Z,16.3
2022-09-20T10:12:58.381Z,16.7
2022-09-20T10:13:58.406Z,17.2
2022-09-20T10:14:58.390Z,4.6000000000000005
2022-09-20T10:15:58.376Z,6.300000000000001
2022-09-20T10:16:58.484Z,17.1
2022-09-20T10:17:58.385Z,8.9
2022-09-20T10:18:58.390Z,16.2
2022-09-20T10:19:58.388Z,9.8
2022-09-20T10:20:58.390Z,16.1
2022-09-20T10:21:58.384Z,9.5
2022-09-20T10:23:26.728Z,5.800000000000001
2022-09-20T10:24:03.429Z,13.3
2022-09-20T10:24:58.390Z,8.9
2022-09-20T10:25:58.414Z,8.6
2022-09-20T10:26:58.399Z,8.4
2022-09-20T10:27:58.403Z,12.3
2022-09-20T10:28:58.410Z,6
2022-09-20T10:29:58.423Z,9.9
2022-09-20T10:30:58.525Z,7
2022-09-20T10:31:58.409Z,8.5
2022-09-20T10:32:58.408Z,4.5
2022-09-20T10:33:58.418Z,5.5
2022-09-20T10:34:58.400Z,6.6000000000000005
2022-09-20T10:35:58.420Z,9.3
2022-09-20T10:36:58.416Z,7
2022-09-20T10:37:58.407Z,4.9
2022-09-20T10:38:58.414Z,4.4
2022-09-20T10:39:58.437Z,2.7
2022-09-20T10:40:58.412Z,3.4000000000000004
2022-09-20T10:41:58.417Z,6.7
2022-09-20T10:42:58.418Z,3.5
2022-09-20T10:44:02.918Z,5.7
2022-09-20T10:44:58.426Z,4
2022-09-20T10:46:58.457Z,8.200000000000001
2022-09-20T10:47:58.423Z,4.800000000000001
2022-09-20T10:48:58.421Z,8.5
2022-09-20T10:49:58.434Z,4.6000000000000005
2022-09-20T10:50:58.420Z,6.300000000000001
2022-09-20T10:51:58.424Z,8.200000000000001
2022-09-20T10:52:58.435Z,5.1000000000000005
2022-09-20T10:53:58.445Z,4.6000000000000005
2022-09-20T10:54:58.431Z,6.1000000000000005
2022-09-20T10:55:58.435Z,8.4
2022-09-20T10:56:58.443Z,7.5
2022-09-20T10:57:58.437Z,4.9
2022-09-20T10:58:58.440Z,5.7
2022-09-20T10:59:58.439Z,10.5
2022-09-20T11:00:58.587Z,7.5
2022-09-20T11:01:58.590Z,8
2022-09-20T11:02:58.439Z,5.5
2022-09-20T11:03:58.445Z,6.5
2022-09-20T11:04:58.444Z,8.4
2022-09-20T11:05:58.443Z,10
2022-09-20T11:06:58.442Z,6.800000000000001
2022-09-20T11:07:58.449Z,4.800000000000001
2022-09-20T11:08:58.440Z,9.4
2022-09-20T11:09:58.451Z,17.1
2022-09-20T11:10:58.460Z,12.100000000000001
2022-09-20T11:11:58.452Z,17
2022-09-20T11:12:58.452Z,12.8
2022-09-20T11:13:58.458Z,13.200000000000001
2022-09-20T11:14:58.456Z,11.600000000000001
2022-09-20T11:15:58.476Z,15.5
2022-09-20T11:16:58.485Z,11.700000000000001
2022-09-20T11:17:58.497Z,8
2022-09-20T11:18:58.450Z,10.3
2022-09-20T11:19:59.216Z,10
2022-09-20T11:20:58.446Z,5.2
2022-09-20T11:21:58.464Z,14.600000000000001
2022-09-20T11:22:58.452Z,11
2022-09-20T11:23:58.460Z,20.8
2022-09-20T11:24:58.459Z,13.600000000000001
2022-09-20T11:25:58.491Z,11.9
2022-09-20T11:26:58.455Z,13.4
2022-09-20T11:27:58.558Z,7
2022-09-20T11:28:58.455Z,7.300000000000001
2022-09-20T11:29:58.466Z,9
2022-09-20T11:30:58.458Z,5.6000000000000005
2022-09-20T11:31:58.560Z,3.8000000000000003
2022-09-20T11:32:58.464Z,7.800000000000001
2022-09-20T11:33:58.527Z,4.1000000000000005
2022-09-20T11:34:58.475Z,7.4
2022-09-20T11:35:58.506Z,5.9
2022-09-20T11:36:58.474Z,8.8
2022-09-20T11:37:58.491Z,8.200000000000001
2022-09-20T11:38:58.474Z,7.1000000000000005
2022-09-20T11:39:58.550Z,8.9
2022-09-20T11:40:58.470Z,8.200000000000001
2022-09-20T11:41:58.481Z,4.3
2022-09-20T11:42:58.472Z,6.9
2022-09-20T11:43:58.478Z,3.4000000000000004
2022-09-20T11:44:58.475Z,6.7
2022-09-20T11:45:58.509Z,5.800000000000001
2022-09-20T11:46:58.473Z,8.3
2022-09-20T11:47:58.477Z,5
2022-09-20T11:48:58.482Z,4.9
2022-09-20T11:49:58.505Z,5.6000000000000005
2022-09-20T11:50:58.473Z,1.6
2022-09-20T11:51:58.485Z,7.9
2022-09-20T11:52:58.478Z,3.8000000000000003
2022-09-20T11:53:58.484Z,2.7
2022-09-20T11:54:58.485Z,5.1000000000000005
2022-09-20T11:55:58.481Z,1.6
2022-09-20T11:56:58.484Z,2.6
2022-09-20T11:57:58.490Z,4
2022-09-20T11:58:58.483Z,4.2
2022-09-20T11:59:58.495Z,5.5
2022-09-20T12:00:58.483Z,6.9
2022-09-20T12:01:58.524Z,3.6
2022-09-20T12:02:58.563Z,10.8
2022-09-20T12:04:14.479Z,7.4
2022-09-20T12:04:58.480Z,9.600000000000001
2022-09-20T12:05:58.527Z,11.4
2022-09-20T12:06:58.479Z,11.4
2022-09-20T12:07:58.489Z,6.7
2022-09-20T12:08:58.483Z,11.4
2022-09-20T12:09:58.496Z,8
2022-09-20T12:10:58.498Z,8
2022-09-20T12:11:58.492Z,10.8
2022-09-20T12:12:58.490Z,10.4
2022-09-20T12:13:58.495Z,9.4
2022-09-20T12:14:58.496Z,7.800000000000001
2022-09-20T12:15:58.499Z,8.8
2022-09-20T12:16:58.499Z,9.8
2022-09-20T12:17:58.499Z,5.7
2022-09-20T12:18:58.487Z,7.9
2022-09-20T12:19:58.494Z,8.3
2022-09-20T12:20:58.491Z,9.3
2022-09-20T12:21:58.519Z,7.5
2022-09-20T12:22:58.500Z,10.200000000000001
2022-09-20T12:23:58.493Z,13.200000000000001
2022-09-20T12:24:58.492Z,11.5
2022-09-20T12:25:58.497Z,11.3
2022-09-20T12:26:58.492Z,9.3
2022-09-20T12:27:58.493Z,10.100000000000001
2022-09-20T12:28:58.484Z,7.300000000000001
2022-09-20T12:29:58.492Z,4.6000000000000005
2022-09-20T12:30:58.496Z,8
2022-09-20T12:31:58.539Z,6
2022-09-20T12:32:58.491Z,3
2022-09-20T12:33:58.493Z,4.9
2022-09-20T12:34:58.491Z,5.2
2022-09-20T12:35:58.611Z,10.600000000000001
2022-09-20T12:36:58.496Z,7.5
2022-09-20T12:37:58.546Z,8.700000000000001
2022-09-20T12:38:58.501Z,5.800000000000001
2022-09-20T12:39:58.555Z,3.4000000000000004
2022-09-20T12:40:58.501Z,10.100000000000001
2022-09-20T12:41:58.491Z,7.5
2022-09-20T12:42:58.498Z,7.2
2022-09-20T12:43:58.495Z,7
2022-09-20T12:44:58.507Z,10.8
2022-09-20T12:46:02.989Z,6.300000000000001
2022-09-20T12:46:58.517Z,6.4
2022-09-20T12:47:58.515Z,8.200000000000001
2022-09-20T12:48:58.516Z,9.8
2022-09-20T12:49:58.514Z,7.800000000000001
2022-09-20T12:50:58.515Z,9
2022-09-20T12:51:58.510Z,6.800000000000001
2022-09-20T12:52:58.539Z,9.1
2022-09-20T12:53:58.598Z,12.8
2022-09-20T12:55:03.242Z,12.100000000000001
2022-09-20T12:55:58.520Z,16.5
2022-09-20T12:56:58.518Z,14.3